Shelby, Nebraska
Current Conditions -  °F | °C
As of 9:55 AM on Friday 31 Oct 2014 (Local Time) from KJYR Reporting Station
Clear Clear  
Wind Chill: 17°   Ceiling: Unl
Heat Index: 28°   Visibility: 10mi
Dew Point: 21°   Wind: 14mph
Humidity: 74%   Direction: 30°NNE
Pressure: 30.57"   Gusts: NA
Location:  41.19°N, 97.43°W
Report Text: KJYR 311455Z AUTO 03012KT 10SM CLR M02/M06 A3057 RMK AO2
Loading
Personal Weather Stations






























Interactive Weather Map
Tropical Storm Tracking
New forecast layout! Learn more

10-Day Weather Forecast

Advertisements
Track Severe Weather on mobile